Providence, Pennsylvania
Current Conditions -  °F | °C
As of 5:53 PM on Tuesday 21 Oct 2014 (Local Time) from KLNS Reporting Station
Overcast Overcast  
Wind Chill: 59°   Ceiling: 9000
Heat Index: 59°   Visibility: 10mi
Dew Point: 48°   Wind: 5mph
Humidity: 67%   Direction: 330°NNW
Pressure: 29.84"   Gusts: NA
Location:  39.9111°N, 76.2285°W
Report Text: KLNS 212153Z 33004KT 10SM OVC090 15/09 A2984 RMK AO2 SLP104 T01500089
Loading
Personal Weather Stations






























Interactive Weather Map
Tropical Storm Tracking
New forecast layout! Learn more

10-Day Weather Forecast

Advertisements
Track Severe Weather on mobile